KNQI/NQI METAR and TAF weather

Enter ICAO airport designator
Station Type Date Time Source
KNQI METAR 2019/10/23 13:56 UTC NOAA

KNQI 231356Z 00000KT 10SM FEW050 FEW250 19/14 A3006 RMK AO2 SLP177 T01890144


Station Type Date Time Source
KNQI Decoded METAR 2019/10/23 13:56 UTC NOAA

KINGSVILLE NAS, TX, United States (KNQI) 27-50N 097-81W 15M
Oct 23, 2019 - 09:56 AM EDT / 2019.10.23 1356 UTC
Wind: Calm:0
Visibility: 10 mile(s):0
Sky conditions: mostly clear
Temperature: 66.0 F (18.9 C)
Dew Point: 57.9 F (14.4 C)
Relative Humidity: 75%
Pressure (altimeter): 30.06 in. Hg (1017 hPa)
ob: KNQI 231356Z 00000KT 10SM FEW050 FEW250 19/14 A3006 RMK AO2 SLP177 T01890144
cycle: 14

Station Type Date Time Source
KNQI TAF 2019/10/23 07:06 UTC NOAA

TAF KNQI 2307/2407 VRB06KT 9999 FEW250 QNH3001INS
BECMG 2312/2314 10008KT 9999 FEW025 FEW250 QNH3003INS
BECMG 2316/2318 12012G18KT 9999 FEW035 SCT250 QNH2991NS
FM240200 13012KT 9999 SCT050 SCT250 QNH2994INS AUTOMATIC SENSOR METWATCH 2307 TIL 2312 T16/2311Z T32/2320Z FN00211

Example: see airport list